createdAt,value
2017-04-06T00:00:14.779Z,5.90
2017-04-06T00:01:20.787Z,5.90
2017-04-06T00:02:27.340Z,5.90
2017-04-06T00:03:33.366Z,5.80
2017-04-06T00:04:39.418Z,5.80
2017-04-06T00:05:45.390Z,5.80
2017-04-06T00:06:51.410Z,5.80
2017-04-06T00:07:57.305Z,5.80
2017-04-06T00:09:03.159Z,5.70
2017-04-06T00:10:09.822Z,5.70
2017-04-06T00:11:15.739Z,5.80
2017-04-06T00:12:21.893Z,5.80
2017-04-06T00:13:28.855Z,5.70
2017-04-06T00:14:34.754Z,5.70
2017-04-06T00:15:40.870Z,5.70
2017-04-06T00:16:46.933Z,5.70
2017-04-06T00:17:52.793Z,5.70
2017-04-06T00:20:05.531Z,5.70
2017-04-06T00:21:11.400Z,5.70
2017-04-06T00:22:17.505Z,5.70
2017-04-06T00:23:24.125Z,5.60
2017-04-06T00:24:30.450Z,5.70
2017-04-06T00:25:36.436Z,5.60
2017-04-06T00:26:43.331Z,5.60
2017-04-06T00:27:49.304Z,5.60
2017-04-06T00:28:55.426Z,5.60
2017-04-06T00:30:01.456Z,5.60
2017-04-06T00:31:07.424Z,5.60
2017-04-06T00:32:20.707Z,5.60
2017-04-06T00:33:26.720Z,5.60
2017-04-06T00:34:32.752Z,5.60
2017-04-06T00:35:38.865Z,5.50
2017-04-06T00:36:45.411Z,5.50
2017-04-06T00:37:51.460Z,5.50
2017-04-06T00:38:57.458Z,5.50
2017-04-06T00:40:03.468Z,5.40
2017-04-06T00:41:09.774Z,5.40
2017-04-06T00:42:16.478Z,5.40
2017-04-06T00:43:22.396Z,5.40
2017-04-06T00:44:28.380Z,5.40
2017-04-06T00:45:34.501Z,5.40
2017-04-06T00:46:40.675Z,5.40
2017-04-06T00:47:46.548Z,5.40
2017-04-06T00:48:52.600Z,5.40
2017-04-06T00:49:58.689Z,5.40
2017-04-06T00:51:04.744Z,5.40
2017-04-06T00:52:15.322Z,5.40
2017-04-06T00:53:22.034Z,5.30
2017-04-06T00:54:28.019Z,5.20
2017-04-06T00:55:34.774Z,5.30
2017-04-06T00:56:40.823Z,5.20
2017-04-06T00:57:46.897Z,5.30
2017-04-06T00:58:52.987Z,5.30
2017-04-06T01:00:00.018Z,5.30
2017-04-06T01:01:06.069Z,5.40
2017-04-06T01:02:12.027Z,5.40
2017-04-06T01:03:18.179Z,5.30
2017-04-06T01:04:24.421Z,5.30
2017-04-06T01:05:31.122Z,5.30
2017-04-06T01:06:37.079Z,5.30
2017-04-06T01:07:43.350Z,5.30
2017-04-06T01:08:49.564Z,5.20
2017-04-06T01:09:55.622Z,5.30
2017-04-06T01:11:01.677Z,5.20
2017-04-06T01:12:07.665Z,5.20
2017-04-06T01:13:13.744Z,5.30
2017-04-06T01:14:19.780Z,5.20
2017-04-06T01:15:26.634Z,5.20
2017-04-06T01:16:33.340Z,5.10
2017-04-06T01:17:39.522Z,5.20
2017-04-06T01:18:46.527Z,5.20
2017-04-06T01:19:52.670Z,5.20
2017-04-06T01:20:58.969Z,5.20
2017-04-06T01:22:06.177Z,5.20
2017-04-06T01:23:12.100Z,5.20
2017-04-06T01:24:18.178Z,5.20
2017-04-06T01:25:24.956Z,5.20
2017-04-06T01:26:31.248Z,5.20
2017-04-06T01:27:37.915Z,5.20
2017-04-06T01:28:43.952Z,5.20
2017-04-06T01:29:49.904Z,5.20
2017-04-06T01:30:55.950Z,5.20
2017-04-06T01:32:02.239Z,5.10
2017-04-06T01:33:08.272Z,5.10
2017-04-06T01:34:14.484Z,5.10
2017-04-06T01:35:20.494Z,5.10
2017-04-06T01:36:26.494Z,5.10
2017-04-06T01:37:32.723Z,5.10
2017-04-06T01:38:38.707Z,5.10
2017-04-06T01:39:44.740Z,5.10
2017-04-06T01:40:50.692Z,5.10
2017-04-06T01:41:56.756Z,5.10
2017-04-06T01:43:02.925Z,5.00
2017-04-06T01:44:08.842Z,5.10
2017-04-06T01:45:14.838Z,5.00
2017-04-06T01:46:21.004Z,5.00
2017-04-06T01:47:27.102Z,5.00
2017-04-06T01:48:33.271Z,4.90
2017-04-06T01:49:40.225Z,4.90
2017-04-06T01:50:46.696Z,5.00
2017-04-06T01:51:52.804Z,4.90
2017-04-06T01:52:59.778Z,4.90
2017-04-06T01:54:05.787Z,4.90
2017-04-06T01:55:11.684Z,4.90
2017-04-06T01:56:17.850Z,4.90
2017-04-06T01:57:24.119Z,5.00
2017-04-06T01:58:31.848Z,4.90
2017-04-06T01:59:37.928Z,4.90
2017-04-06T02:00:43.952Z,4.90
2017-04-06T02:01:50.886Z,4.80
2017-04-06T02:02:56.977Z,4.90
2017-04-06T02:04:03.095Z,4.80
2017-04-06T02:05:09.925Z,4.90
2017-04-06T02:06:16.413Z,4.90
2017-04-06T02:07:22.560Z,4.80
2017-04-06T02:08:28.889Z,4.70
2017-04-06T02:09:34.972Z,4.80
2017-04-06T02:10:41.013Z,4.80
2017-04-06T02:11:48.104Z,4.80
2017-04-06T02:12:54.334Z,4.80
2017-04-06T02:14:00.503Z,4.80
2017-04-06T02:15:06.605Z,4.80
2017-04-06T02:16:12.616Z,4.80
2017-04-06T02:17:18.891Z,4.80
2017-04-06T02:18:25.731Z,4.80
2017-04-06T02:19:31.700Z,4.80
2017-04-06T02:20:37.890Z,4.80
2017-04-06T02:21:43.892Z,4.70
2017-04-06T02:22:49.874Z,4.60
2017-04-06T02:23:56.091Z,4.60
2017-04-06T02:25:02.966Z,4.70
2017-04-06T02:26:09.041Z,4.70
2017-04-06T02:27:15.013Z,4.70
2017-04-06T02:28:21.172Z,4.70
2017-04-06T02:29:27.705Z,4.60
2017-04-06T02:30:33.849Z,4.70
2017-04-06T02:31:39.940Z,4.70
2017-04-06T02:32:45.942Z,4.70
2017-04-06T02:33:51.897Z,4.70
2017-04-06T02:34:57.949Z,4.70
2017-04-06T02:36:03.953Z,4.70
2017-04-06T02:37:10.733Z,4.60
2017-04-06T02:38:16.802Z,4.70
2017-04-06T02:39:22.716Z,4.60
2017-04-06T02:40:29.740Z,4.60
2017-04-06T02:41:35.766Z,4.60
2017-04-06T02:42:42.035Z,4.50
2017-04-06T02:43:48.775Z,4.50
2017-04-06T02:44:54.868Z,4.60
2017-04-06T02:46:01.755Z,4.60
2017-04-06T02:47:07.719Z,4.60
2017-04-06T02:48:13.782Z,4.50
2017-04-06T02:49:19.976Z,4.50
2017-04-06T02:50:26.739Z,4.50
2017-04-06T02:51:33.045Z,4.50
2017-04-06T02:52:39.960Z,4.50
2017-04-06T02:53:46.093Z,4.50
2017-04-06T02:54:52.147Z,4.50
2017-04-06T02:55:58.424Z,4.50
2017-04-06T02:57:04.559Z,4.40
2017-04-06T02:58:10.552Z,4.40
2017-04-06T02:59:17.327Z,4.40
2017-04-06T03:00:23.381Z,4.40
2017-04-06T03:01:30.282Z,4.40
2017-04-06T03:02:36.330Z,4.40
2017-04-06T03:03:42.392Z,4.30
2017-04-06T03:04:48.506Z,4.30
2017-04-06T03:05:54.481Z,4.30
2017-04-06T03:07:00.529Z,4.30
2017-04-06T03:08:07.477Z,4.30
2017-04-06T03:09:13.652Z,4.30
2017-04-06T03:10:19.975Z,4.30
2017-04-06T03:11:25.873Z,4.30
2017-04-06T03:12:31.864Z,4.30
2017-04-06T03:13:37.824Z,4.40
2017-04-06T03:14:44.666Z,4.40
2017-04-06T03:15:50.776Z,4.30
2017-04-06T03:16:57.451Z,4.30
2017-04-06T03:18:03.412Z,4.30
2017-04-06T03:19:10.038Z,4.20
2017-04-06T03:20:16.068Z,4.20
2017-04-06T03:21:22.367Z,4.20
2017-04-06T03:22:28.414Z,4.20
2017-04-06T03:23:34.494Z,4.30
2017-04-06T03:24:40.484Z,4.20
2017-04-06T03:25:46.500Z,4.20
2017-04-06T03:26:52.564Z,4.20
2017-04-06T03:27:59.355Z,4.20
2017-04-06T03:29:05.308Z,4.20
2017-04-06T03:30:11.344Z,4.20
2017-04-06T03:31:17.327Z,4.20
2017-04-06T03:32:23.441Z,4.20
2017-04-06T03:33:29.299Z,4.20
2017-04-06T03:34:35.415Z,4.20
2017-04-06T03:35:41.425Z,4.20
2017-04-06T03:36:48.195Z,4.20
2017-04-06T03:37:54.184Z,4.10
2017-04-06T03:39:00.207Z,4.10
2017-04-06T03:40:06.174Z,4.20
2017-04-06T03:41:12.244Z,4.20
2017-04-06T03:42:18.236Z,4.20
2017-04-06T03:43:24.179Z,4.10
2017-04-06T03:44:30.234Z,4.10
2017-04-06T03:45:36.895Z,4.00
2017-04-06T03:46:43.760Z,4.00
2017-04-06T03:47:49.617Z,4.00
2017-04-06T03:48:56.325Z,4.00
2017-04-06T03:50:02.378Z,4.10
2017-04-06T03:51:09.055Z,4.10
2017-04-06T03:52:15.396Z,4.10
2017-04-06T03:53:21.350Z,4.00
2017-04-06T03:54:27.368Z,4.00
2017-04-06T03:55:34.125Z,4.00
2017-04-06T03:56:40.229Z,4.00
2017-04-06T03:57:46.265Z,4.00
2017-04-06T03:58:52.230Z,4.00
2017-04-06T03:59:59.094Z,4.00
2017-04-06T04:01:05.165Z,4.00
2017-04-06T04:02:11.195Z,4.00
2017-04-06T04:03:18.048Z,3.90
2017-04-06T04:04:24.259Z,4.00
2017-04-06T04:05:30.310Z,4.00
2017-04-06T04:06:36.278Z,4.00
2017-04-06T04:07:42.368Z,4.00
2017-04-06T04:08:48.550Z,4.00
2017-04-06T04:09:55.335Z,4.00
2017-04-06T04:11:01.250Z,4.00
2017-04-06T04:12:07.149Z,3.90
2017-04-06T04:13:13.256Z,4.00
2017-04-06T04:14:19.445Z,4.00
2017-04-06T04:15:26.226Z,3.90
2017-04-06T04:16:32.330Z,3.90
2017-04-06T04:17:38.325Z,3.90
2017-04-06T04:18:44.301Z,3.90
2017-04-06T04:19:51.095Z,4.00
2017-04-06T04:20:57.112Z,4.10
2017-04-06T04:22:03.062Z,4.00
2017-04-06T04:23:08.956Z,4.00
2017-04-06T04:25:22.271Z,3.90
2017-04-06T04:26:28.467Z,3.90
2017-04-06T04:27:34.655Z,3.90
2017-04-06T04:28:40.639Z,3.90
2017-04-06T04:29:46.705Z,3.80
2017-04-06T04:30:52.699Z,3.80
2017-04-06T04:31:59.444Z,3.80
2017-04-06T04:33:06.213Z,3.80
2017-04-06T04:34:12.225Z,3.80
2017-04-06T04:35:19.653Z,3.80
2017-04-06T04:36:26.673Z,3.70
2017-04-06T04:37:34.384Z,3.70
2017-04-06T04:38:40.536Z,3.60
2017-04-06T04:39:47.202Z,3.60
2017-04-06T04:40:53.194Z,3.60
2017-04-06T04:42:00.879Z,3.60
2017-04-06T04:43:06.975Z,3.70
2017-04-06T04:44:13.442Z,3.70
2017-04-06T04:45:20.204Z,3.70
2017-04-06T04:46:26.304Z,3.60
2017-04-06T04:47:33.528Z,3.70
2017-04-06T04:48:39.554Z,3.60
2017-04-06T04:49:45.480Z,3.60
2017-04-06T04:50:51.401Z,3.60
2017-04-06T04:51:57.439Z,3.60
2017-04-06T04:53:04.486Z,3.60
2017-04-06T04:54:10.620Z,3.60
2017-04-06T04:55:16.976Z,3.60
2017-04-06T04:56:23.679Z,3.60
2017-04-06T04:57:29.980Z,3.60
2017-04-06T04:58:36.056Z,3.70
2017-04-06T04:59:42.644Z,3.70
2017-04-06T05:00:49.160Z,3.70
2017-04-06T05:01:55.223Z,3.70
2017-04-06T05:03:01.217Z,3.70
2017-04-06T05:04:07.326Z,3.70
2017-04-06T05:05:13.181Z,3.70
2017-04-06T05:06:19.271Z,3.70
2017-04-06T05:07:25.368Z,3.80
2017-04-06T05:08:31.644Z,3.70
2017-04-06T05:09:37.703Z,3.70
2017-04-06T05:10:43.812Z,3.70
2017-04-06T05:11:49.795Z,3.70
2017-04-06T05:12:55.731Z,3.80
2017-04-06T05:14:01.828Z,3.70
2017-04-06T05:15:08.017Z,3.70
2017-04-06T05:16:13.961Z,3.70
2017-04-06T05:17:20.027Z,3.80
2017-04-06T05:18:26.008Z,3.80
2017-04-06T05:19:32.100Z,3.80
2017-04-06T05:20:38.393Z,3.80
2017-04-06T05:21:44.518Z,3.80
2017-04-06T05:22:51.403Z,3.80
2017-04-06T05:23:57.448Z,3.80
2017-04-06T05:25:03.448Z,3.80
2017-04-06T05:26:09.631Z,3.80
2017-04-06T05:27:16.503Z,3.80
2017-04-06T05:28:22.579Z,3.90
2017-04-06T05:29:28.629Z,3.90
2017-04-06T05:30:34.817Z,3.90
2017-04-06T05:31:40.857Z,4.00
2017-04-06T05:32:46.764Z,3.90
2017-04-06T05:33:52.731Z,3.90
2017-04-06T05:34:58.809Z,3.90
2017-04-06T05:36:04.974Z,4.00
2017-04-06T05:37:11.153Z,4.00
2017-04-06T05:38:17.098Z,4.00
2017-04-06T05:39:22.972Z,4.00
2017-04-06T05:40:29.139Z,4.00
2017-04-06T05:41:35.944Z,4.00
2017-04-06T05:42:42.016Z,4.10
2017-04-06T05:43:48.248Z,4.00
2017-04-06T05:44:54.419Z,4.00
2017-04-06T05:46:00.352Z,4.00
2017-04-06T05:47:06.448Z,4.00
2017-04-06T05:48:12.944Z,4.00
2017-04-06T05:49:19.252Z,4.10
2017-04-06T05:50:25.477Z,4.40
2017-04-06T05:51:32.358Z,4.70
2017-04-06T05:52:38.493Z,4.80
2017-04-06T05:53:44.542Z,5.00
2017-04-06T05:55:56.804Z,4.90
2017-04-06T05:57:02.720Z,4.80
2017-04-06T05:58:08.755Z,5.00
2017-04-06T05:59:14.775Z,4.90
2017-04-06T06:00:20.976Z,5.10
2017-04-06T06:01:27.084Z,5.20
2017-04-06T06:02:33.272Z,5.40
2017-04-06T06:03:39.311Z,5.70
2017-04-06T06:04:45.394Z,5.90
2017-04-06T06:05:52.095Z,6.10
2017-04-06T06:06:58.231Z,6.10
2017-04-06T06:08:04.951Z,6.30
2017-04-06T06:09:11.111Z,6.50
2017-04-06T06:10:17.138Z,6.40
2017-04-06T06:11:23.166Z,6.60
2017-04-06T06:12:29.864Z,6.60
2017-04-06T06:13:36.544Z,6.70
2017-04-06T06:14:43.482Z,6.30
2017-04-06T06:15:50.203Z,6.20
2017-04-06T06:16:56.407Z,6.20
2017-04-06T06:18:02.480Z,6.00
2017-04-06T06:19:07.738Z,6.00
2017-04-06T06:20:14.311Z,5.90
2017-04-06T06:21:20.309Z,5.90
2017-04-06T06:22:26.953Z,6.00
2017-04-06T06:23:33.326Z,6.00
2017-04-06T06:24:39.301Z,6.10
2017-04-06T06:25:45.488Z,6.20
2017-04-06T06:26:52.364Z,6.10
2017-04-06T06:27:58.432Z,6.60
2017-04-06T06:29:04.564Z,6.90
2017-04-06T06:30:10.556Z,7.40
2017-04-06T06:31:16.677Z,7.40
2017-04-06T06:32:22.785Z,7.70
2017-04-06T06:33:28.875Z,7.40
2017-04-06T06:34:34.864Z,7.50
2017-04-06T06:35:41.631Z,7.80
2017-04-06T06:36:47.664Z,7.40
2017-04-06T06:37:53.688Z,7.20
2017-04-06T06:38:59.637Z,7.20
2017-04-06T06:40:05.654Z,7.10
2017-04-06T06:41:11.556Z,6.70
2017-04-06T06:42:17.776Z,6.20
2017-04-06T06:43:24.662Z,6.30
2017-04-06T06:44:30.705Z,6.30
2017-04-06T06:45:36.656Z,6.40
2017-04-06T06:46:43.426Z,6.20
2017-04-06T06:47:51.036Z,6.00
2017-04-06T06:48:57.660Z,6.20
2017-04-06T06:50:06.557Z,6.20
2017-04-06T06:51:13.153Z,6.00
2017-04-06T06:52:19.237Z,6.20
2017-04-06T06:53:25.319Z,6.30
2017-04-06T06:54:32.049Z,6.40
2017-04-06T06:55:38.128Z,6.60
2017-04-06T06:56:44.180Z,6.50
2017-04-06T06:57:51.037Z,6.60
2017-04-06T06:58:57.159Z,6.80
2017-04-06T07:00:03.217Z,6.80
2017-04-06T07:01:09.216Z,6.50
2017-04-06T07:02:15.135Z,6.30
2017-04-06T07:03:28.908Z,6.20
2017-04-06T07:04:35.233Z,6.10
2017-04-06T07:05:41.369Z,6.20
2017-04-06T07:06:48.149Z,6.20
2017-04-06T07:07:54.120Z,6.20
2017-04-06T07:09:00.343Z,6.30
2017-04-06T07:10:06.431Z,6.30
2017-04-06T07:11:14.948Z,6.40
2017-04-06T07:12:24.707Z,6.50
2017-04-06T07:13:30.575Z,6.60
2017-04-06T07:14:37.331Z,6.50
2017-04-06T07:15:44.060Z,6.40
2017-04-06T07:16:50.051Z,6.30
2017-04-06T07:17:56.121Z,6.30
2017-04-06T07:19:02.412Z,6.40
2017-04-06T07:20:08.243Z,6.60
2017-04-06T07:21:14.224Z,6.90
2017-04-06T07:22:20.188Z,7.00
2017-04-06T07:23:26.237Z,6.90
2017-04-06T07:24:32.264Z,7.00
2017-04-06T07:25:38.237Z,7.20
2017-04-06T07:26:44.932Z,7.20
2017-04-06T07:27:51.228Z,7.20
2017-04-06T07:28:57.333Z,7.00
2017-04-06T07:30:03.601Z,7.00
2017-04-06T07:31:09.807Z,7.10
2017-04-06T07:32:16.096Z,7.10
2017-04-06T07:33:22.087Z,7.00
2017-04-06T07:34:28.069Z,7.10
2017-04-06T07:35:34.440Z,7.10
2017-04-06T07:36:40.539Z,7.10
2017-04-06T07:37:46.745Z,7.00
2017-04-06T07:38:52.688Z,7.10
2017-04-06T07:39:58.776Z,7.00
2017-04-06T07:41:05.525Z,7.10
2017-04-06T07:42:12.549Z,7.20
2017-04-06T07:43:18.528Z,7.10
2017-04-06T07:44:24.611Z,7.00
2017-04-06T07:45:30.685Z,7.30
2017-04-06T07:46:36.699Z,7.40
2017-04-06T07:47:42.845Z,7.40
2017-04-06T07:48:48.947Z,7.40
2017-04-06T07:49:54.892Z,7.30
2017-04-06T07:51:00.961Z,7.40
2017-04-06T07:52:07.064Z,7.60
2017-04-06T07:53:13.071Z,7.70
2017-04-06T07:54:19.073Z,7.50
2017-04-06T07:55:25.036Z,7.60
2017-04-06T07:56:31.171Z,7.90
2017-04-06T07:57:37.175Z,8.20
2017-04-06T07:58:43.200Z,8.10
2017-04-06T07:59:49.236Z,7.90
2017-04-06T08:00:56.093Z,7.90
2017-04-06T08:02:02.040Z,7.80
2017-04-06T08:03:08.182Z,7.80
2017-04-06T08:04:14.203Z,7.70
2017-04-06T08:05:20.222Z,7.90
2017-04-06T08:06:26.387Z,8.00
2017-04-06T08:07:32.483Z,8.00
2017-04-06T08:08:38.387Z,7.90
2017-04-06T08:09:44.484Z,7.80
2017-04-06T08:10:50.554Z,7.80
2017-04-06T08:11:56.561Z,8.00
2017-04-06T08:13:02.707Z,8.20
2017-04-06T08:14:08.688Z,8.20
2017-04-06T08:15:14.641Z,8.30
2017-04-06T08:16:20.702Z,8.10
2017-04-06T08:17:26.729Z,8.40
2017-04-06T08:18:32.699Z,8.30
2017-04-06T08:19:38.743Z,8.40
2017-04-06T08:20:44.788Z,8.30
2017-04-06T08:21:51.717Z,8.50
2017-04-06T08:22:58.099Z,8.60
2017-04-06T08:24:05.046Z,8.50
2017-04-06T08:25:11.121Z,8.60
2017-04-06T08:26:17.836Z,8.70
2017-04-06T08:27:23.948Z,8.70
2017-04-06T08:28:31.424Z,8.90
2017-04-06T08:29:37.386Z,8.90
2017-04-06T08:30:43.476Z,9.00
2017-04-06T08:31:49.431Z,9.10
2017-04-06T08:34:01.839Z,9.20
2017-04-06T08:35:07.733Z,9.40
2017-04-06T08:36:13.729Z,9.70
2017-04-06T08:37:19.786Z,9.70
2017-04-06T08:38:25.888Z,9.50
2017-04-06T08:39:32.023Z,9.40
2017-04-06T08:40:37.932Z,9.50
2017-04-06T08:41:44.119Z,9.40
2017-04-06T08:42:50.284Z,9.20
2017-04-06T08:43:56.386Z,9.40
2017-04-06T08:45:02.461Z,9.50
2017-04-06T08:46:08.611Z,9.60
2017-04-06T08:47:14.564Z,9.60
2017-04-06T08:48:20.453Z,9.40
2017-04-06T08:49:26.558Z,9.40
2017-04-06T08:50:33.076Z,9.70
2017-04-06T08:51:39.095Z,9.80
2017-04-06T08:52:45.148Z,10.10
2017-04-06T08:53:51.244Z,9.90
2017-04-06T08:54:57.211Z,9.70
2017-04-06T08:56:04.598Z,9.80
2017-04-06T08:57:11.260Z,10.00
2017-04-06T08:58:17.279Z,10.50
2017-04-06T08:59:23.344Z,10.70
2017-04-06T09:00:29.377Z,10.50
2017-04-06T09:01:35.509Z,10.40
2017-04-06T09:02:42.207Z,10.50
2017-04-06T09:03:48.341Z,10.90
2017-04-06T09:04:55.158Z,10.90
2017-04-06T09:06:01.340Z,10.70
2017-04-06T09:07:08.155Z,10.90
2017-04-06T09:08:14.176Z,11.20
2017-04-06T09:09:20.285Z,11.30
2017-04-06T09:10:26.578Z,10.90
2017-04-06T09:11:32.508Z,11.50
2017-04-06T09:12:38.590Z,11.10
2017-04-06T09:13:45.464Z,11.20
2017-04-06T09:15:57.721Z,11.20
2017-04-06T09:17:04.567Z,11.10
2017-04-06T09:18:10.545Z,10.90
2017-04-06T09:19:16.655Z,10.70
2017-04-06T09:20:22.528Z,11.10
2017-04-06T09:21:28.517Z,11.40
2017-04-06T09:22:34.501Z,11.40
2017-04-06T09:23:40.796Z,10.70
2017-04-06T09:24:46.684Z,11.00
2017-04-06T09:25:52.656Z,11.40
2017-04-06T09:26:58.685Z,11.10
2017-04-06T09:28:04.961Z,11.50
2017-04-06T09:29:11.111Z,12.00
2017-04-06T09:30:17.117Z,12.00
2017-04-06T09:31:23.197Z,11.80
2017-04-06T09:32:29.116Z,11.80
2017-04-06T09:33:35.275Z,11.90
2017-04-06T09:34:41.352Z,12.10
2017-04-06T09:35:47.515Z,12.30
2017-04-06T09:36:53.572Z,12.10
2017-04-06T09:37:59.720Z,11.80
2017-04-06T09:39:05.900Z,12.40
2017-04-06T09:40:11.987Z,12.60
2017-04-06T09:41:18.101Z,12.80
2017-04-06T09:42:24.154Z,12.30
2017-04-06T09:43:30.286Z,12.30
2017-04-06T09:44:36.221Z,11.60
2017-04-06T09:45:42.105Z,12.10
2017-04-06T09:46:48.214Z,12.80
2017-04-06T09:47:54.224Z,12.80
2017-04-06T09:49:00.332Z,11.90
2017-04-06T09:50:08.713Z,11.50
2017-04-06T09:51:14.660Z,11.70
2017-04-06T09:52:20.693Z,11.70
2017-04-06T09:53:26.732Z,11.80
2017-04-06T09:54:32.944Z,11.60
2017-04-06T09:55:38.968Z,11.60
2017-04-06T09:56:45.121Z,11.80
2017-04-06T09:57:51.232Z,12.00
2017-04-06T09:58:57.472Z,11.90
2017-04-06T10:00:03.480Z,12.00
2017-04-06T10:01:09.495Z,11.90
2017-04-06T10:02:15.552Z,11.50
2017-04-06T10:03:21.615Z,11.40
2017-04-06T10:04:27.973Z,11.30
2017-04-06T10:05:33.938Z,11.60
2017-04-06T10:06:40.240Z,12.00
2017-04-06T10:07:46.992Z,12.00
2017-04-06T10:09:59.183Z,11.90
2017-04-06T10:11:05.246Z,11.80
2017-04-06T10:12:11.155Z,11.50
2017-04-06T10:13:17.873Z,11.30
2017-04-06T10:14:23.944Z,11.10
2017-04-06T10:15:29.934Z,11.40
2017-04-06T10:16:35.900Z,11.70
2017-04-06T10:17:41.868Z,11.50
2017-04-06T10:18:48.520Z,11.30
2017-04-06T10:19:54.556Z,11.10
2017-04-06T10:21:00.645Z,11.50
2017-04-06T10:22:06.605Z,11.20
2017-04-06T10:23:12.701Z,11.40
2017-04-06T10:24:18.799Z,11.40
2017-04-06T10:25:24.920Z,11.70
2017-04-06T10:26:31.822Z,11.90
2017-04-06T10:27:38.029Z,11.50
2017-04-06T10:28:44.008Z,11.30
2017-04-06T10:29:50.023Z,11.20
2017-04-06T10:30:56.076Z,11.00
2017-04-06T10:32:02.004Z,11.00
2017-04-06T10:33:08.029Z,11.20
2017-04-06T10:34:13.985Z,11.50
2017-04-06T10:35:20.828Z,11.60
2017-04-06T10:36:26.868Z,11.40
2017-04-06T10:37:33.655Z,11.20
2017-04-06T10:38:39.733Z,11.50
2017-04-06T10:39:45.785Z,11.60
2017-04-06T10:40:51.796Z,11.60
2017-04-06T10:41:57.956Z,11.60
2017-04-06T10:43:04.007Z,11.30
2017-04-06T10:44:10.100Z,10.80
2017-04-06T10:45:16.060Z,10.80
2017-04-06T10:46:22.130Z,10.80
2017-04-06T10:47:28.356Z,10.80
2017-04-06T10:48:35.151Z,10.70
2017-04-06T10:49:42.035Z,10.80
2017-04-06T10:50:48.070Z,10.90
2017-04-06T10:51:54.994Z,11.00
2017-04-06T10:53:01.136Z,11.10
2017-04-06T10:54:07.155Z,11.10
2017-04-06T10:55:13.146Z,11.30
2017-04-06T10:56:19.856Z,11.40
2017-04-06T10:57:25.768Z,11.40
2017-04-06T10:58:31.779Z,11.00
2017-04-06T10:59:37.809Z,11.00
2017-04-06T11:00:43.773Z,11.10
2017-04-06T11:01:49.743Z,11.20
2017-04-06T11:02:55.800Z,11.40
2017-04-06T11:04:02.236Z,11.10
2017-04-06T11:05:09.952Z,11.00
2017-04-06T11:06:16.316Z,11.40
2017-04-06T11:07:22.284Z,11.40
2017-04-06T11:08:28.248Z,11.50
2017-04-06T11:09:34.205Z,11.20
2017-04-06T11:10:40.277Z,11.40
2017-04-06T11:11:46.986Z,11.50
2017-04-06T11:12:52.888Z,11.30
2017-04-06T11:13:58.937Z,11.30
2017-04-06T11:15:04.969Z,11.10
2017-04-06T11:16:10.959Z,11.30
2017-04-06T11:17:17.034Z,11.40
2017-04-06T11:18:23.030Z,11.20
2017-04-06T11:19:29.012Z,11.30
2017-04-06T11:20:35.092Z,11.10
2017-04-06T11:21:41.167Z,11.20
2017-04-06T11:22:47.219Z,11.20
2017-04-06T11:23:53.244Z,11.20
2017-04-06T11:25:00.030Z,11.00
2017-04-06T11:26:06.848Z,11.00
2017-04-06T11:27:13.807Z,11.00
2017-04-06T11:28:19.866Z,11.10
2017-04-06T11:29:26.000Z,11.30
2017-04-06T11:30:31.907Z,11.40
2017-04-06T11:31:37.867Z,11.30
2017-04-06T11:32:44.020Z,11.40
2017-04-06T11:33:50.875Z,11.50
2017-04-06T11:34:57.274Z,11.50
2017-04-06T11:36:03.356Z,11.80
2017-04-06T11:37:09.374Z,11.90
2017-04-06T11:38:15.555Z,12.20
2017-04-06T11:39:22.416Z,12.20
2017-04-06T11:40:28.442Z,11.90
2017-04-06T11:41:34.505Z,12.30
2017-04-06T11:42:40.627Z,12.60
2017-04-06T11:43:46.803Z,12.20
2017-04-06T11:44:52.865Z,12.50
2017-04-06T11:45:58.967Z,12.60
2017-04-06T11:47:05.014Z,12.40
2017-04-06T11:48:10.949Z,12.40
2017-04-06T11:49:18.182Z,12.70
2017-04-06T11:50:24.971Z,12.70
2017-04-06T11:51:31.109Z,12.30
2017-04-06T11:52:37.167Z,12.10
2017-04-06T11:53:43.146Z,11.90
2017-04-06T11:54:49.228Z,12.30
2017-04-06T11:55:55.923Z,12.70
2017-04-06T11:57:01.963Z,12.40
2017-04-06T11:58:07.972Z,12.10
2017-04-06T11:59:14.093Z,12.30
2017-04-06T12:00:20.143Z,12.10
2017-04-06T12:01:26.245Z,12.00
2017-04-06T12:02:32.925Z,11.90
2017-04-06T12:03:38.800Z,11.60
2017-04-06T12:04:44.900Z,12.00
2017-04-06T12:05:50.968Z,12.20
2017-04-06T12:06:57.056Z,12.30
2017-04-06T12:08:03.177Z,12.20
2017-04-06T12:09:10.031Z,12.20
2017-04-06T12:10:16.003Z,12.10
2017-04-06T12:11:22.125Z,12.10
2017-04-06T12:12:29.049Z,12.00
2017-04-06T12:13:35.029Z,11.80
2017-04-06T12:14:41.061Z,12.00
2017-04-06T12:15:47.131Z,12.00
2017-04-06T12:16:53.168Z,12.20
2017-04-06T12:17:59.920Z,11.60
2017-04-06T12:19:05.825Z,11.70
2017-04-06T12:20:11.984Z,11.70
2017-04-06T12:21:19.393Z,11.60
2017-04-06T12:22:25.579Z,11.20
2017-04-06T12:23:31.702Z,11.20
2017-04-06T12:24:37.788Z,11.20
2017-04-06T12:25:43.842Z,11.00
2017-04-06T12:26:49.940Z,11.10
2017-04-06T12:27:56.781Z,11.10
2017-04-06T12:29:02.872Z,10.80
2017-04-06T12:30:09.753Z,10.90
2017-04-06T12:31:15.643Z,10.90
2017-04-06T12:32:21.725Z,11.10
2017-04-06T12:33:27.797Z,11.10
2017-04-06T12:34:33.864Z,11.40
2017-04-06T12:35:39.856Z,11.60
2017-04-06T12:36:45.884Z,11.50
2017-04-06T12:37:52.004Z,11.30
2017-04-06T12:38:58.761Z,11.50
2017-04-06T12:40:04.864Z,11.30
2017-04-06T12:41:10.917Z,11.50
2017-04-06T12:42:17.781Z,11.20
2017-04-06T12:43:24.092Z,11.60
2017-04-06T12:44:30.664Z,12.00
2017-04-06T12:45:36.960Z,12.30
2017-04-06T12:46:43.724Z,12.50
2017-04-06T12:47:49.811Z,12.50
2017-04-06T12:48:55.924Z,12.40
2017-04-06T12:50:02.077Z,12.60
2017-04-06T12:51:08.169Z,12.70
2017-04-06T12:52:14.194Z,12.30
2017-04-06T12:53:21.015Z,12.10
2017-04-06T12:54:27.162Z,12.40
2017-04-06T12:55:33.999Z,12.20
2017-04-06T12:56:40.712Z,12.00
2017-04-06T12:57:46.669Z,12.40
2017-04-06T12:58:52.618Z,12.90
2017-04-06T12:59:59.275Z,12.90
2017-04-06T13:01:05.348Z,12.70
2017-04-06T13:02:11.486Z,12.60
2017-04-06T13:03:17.535Z,12.10
2017-04-06T13:04:23.449Z,11.70
2017-04-06T13:05:29.520Z,11.10
2017-04-06T13:06:36.304Z,10.80
2017-04-06T13:07:42.301Z,10.80
2017-04-06T13:08:48.517Z,10.80
2017-04-06T13:09:54.493Z,10.60
2017-04-06T13:11:00.527Z,10.80
2017-04-06T13:12:06.508Z,10.80
2017-04-06T13:13:12.420Z,10.60
2017-04-06T13:14:18.537Z,10.60
2017-04-06T13:15:24.568Z,10.60
2017-04-06T13:16:30.441Z,10.70
2017-04-06T13:17:36.524Z,10.90
2017-04-06T13:18:42.655Z,11.10
2017-04-06T13:19:56.302Z,11.40
2017-04-06T13:21:03.128Z,11.30
2017-04-06T13:22:09.244Z,11.10
2017-04-06T13:23:15.401Z,11.10
2017-04-06T13:24:21.349Z,11.00
2017-04-06T13:25:27.355Z,10.90
2017-04-06T13:26:33.549Z,10.70
2017-04-06T13:27:40.083Z,10.40
2017-04-06T13:28:46.207Z,10.30
2017-04-06T13:29:52.261Z,10.20
2017-04-06T13:30:59.004Z,10.40
2017-04-06T13:32:05.079Z,10.40
2017-04-06T13:33:11.064Z,10.40
2017-04-06T13:34:17.116Z,10.30
2017-04-06T13:35:23.119Z,10.30
2017-04-06T13:36:29.168Z,10.20
2017-04-06T13:37:35.341Z,10.30
2017-04-06T13:38:41.361Z,10.20
2017-04-06T13:39:47.460Z,10.40
2017-04-06T13:40:54.171Z,10.20
2017-04-06T13:42:00.192Z,10.40
2017-04-06T13:43:06.361Z,10.50
2017-04-06T13:44:12.311Z,10.50
2017-04-06T13:45:18.410Z,10.40
2017-04-06T13:46:24.532Z,10.30
2017-04-06T13:47:31.295Z,10.40
2017-04-06T13:48:37.252Z,10.40
2017-04-06T13:49:52.572Z,10.30
2017-04-06T13:50:58.835Z,10.30
2017-04-06T13:53:11.195Z,10.70
2017-04-06T13:54:17.145Z,10.80
2017-04-06T13:55:23.122Z,10.70
2017-04-06T13:56:29.067Z,10.60
2017-04-06T13:57:36.109Z,10.40
2017-04-06T13:58:42.053Z,10.40
2017-04-06T13:59:48.013Z,10.20
2017-04-06T14:00:53.946Z,10.20
2017-04-06T14:01:59.880Z,10.30
2017-04-06T14:03:06.220Z,10.30
2017-04-06T14:04:12.960Z,10.30
2017-04-06T14:05:19.040Z,10.30
2017-04-06T14:06:25.033Z,10.30
2017-04-06T14:07:31.042Z,10.30
2017-04-06T14:08:37.145Z,10.40
2017-04-06T14:09:47.239Z,10.30
2017-04-06T14:10:55.263Z,10.40
2017-04-06T14:12:01.972Z,10.40
2017-04-06T14:13:08.070Z,10.50
2017-04-06T14:14:14.114Z,10.20
2017-04-06T14:15:20.098Z,10.20
2017-04-06T14:16:26.048Z,10.30
2017-04-06T14:17:31.988Z,10.10
2017-04-06T14:18:38.014Z,10.00
2017-04-06T14:19:44.022Z,10.00
2017-04-06T14:20:49.994Z,9.90
2017-04-06T14:21:55.980Z,10.10
2017-04-06T14:23:01.999Z,10.10
2017-04-06T14:24:08.793Z,10.20
2017-04-06T14:25:14.893Z,10.20
2017-04-06T14:26:21.646Z,10.20
2017-04-06T14:27:27.736Z,10.20
2017-04-06T14:28:33.824Z,10.20
2017-04-06T14:29:39.863Z,10.20
2017-04-06T14:30:46.012Z,10.10
2017-04-06T14:31:52.108Z,9.90
2017-04-06T14:32:58.250Z,10.10
2017-04-06T14:34:05.175Z,10.10
2017-04-06T14:35:11.996Z,10.00
2017-04-06T14:36:18.404Z,9.90
2017-04-06T14:37:25.130Z,9.70
2017-04-06T14:38:31.248Z,9.60